createdAt,value
2022-11-05T00:02:37.985Z,100.00
2022-11-05T00:07:38.045Z,100.00
2022-11-05T00:12:38.212Z,100.00
2022-11-05T00:17:38.048Z,100.00
2022-11-05T00:22:37.958Z,100.00
2022-11-05T00:27:37.995Z,100.00
2022-11-05T00:32:38.333Z,100.00
2022-11-05T00:37:38.295Z,100.00
2022-11-05T00:42:38.009Z,100.00
2022-11-05T00:47:38.246Z,100.00
2022-11-05T00:52:38.009Z,100.00
2022-11-05T00:57:38.233Z,100.00
2022-11-05T01:02:38.259Z,100.00
2022-11-05T01:07:38.025Z,100.00
2022-11-05T01:12:38.346Z,99.49
2022-11-05T01:17:38.124Z,99.63
2022-11-05T01:22:38.020Z,99.09
2022-11-05T01:27:38.144Z,98.44
2022-11-05T01:32:37.997Z,98.37
2022-11-05T01:37:38.323Z,99.20
2022-11-05T01:42:38.275Z,100.00
2022-11-05T01:47:37.994Z,99.40
2022-11-05T01:52:38.207Z,100.00
2022-11-05T01:57:38.338Z,99.65
2022-11-05T02:02:38.275Z,99.65
2022-11-05T02:07:38.348Z,99.78
2022-11-05T02:17:38.123Z,100.00
2022-11-05T02:22:38.089Z,100.00
2022-11-05T02:27:38.034Z,100.00
2022-11-05T02:32:38.052Z,100.00
2022-11-05T02:37:38.248Z,100.00
2022-11-05T02:42:38.086Z,100.00
2022-11-05T02:47:38.209Z,100.00
2022-11-05T02:57:38.044Z,100.00
2022-11-05T03:02:38.510Z,100.00
2022-11-05T03:07:38.139Z,100.00
2022-11-05T03:12:38.035Z,100.00
2022-11-05T03:17:38.083Z,100.00
2022-11-05T03:22:38.241Z,100.00
2022-11-05T03:27:38.071Z,100.00
2022-11-05T03:42:38.067Z,100.00
2022-11-05T03:47:38.185Z,100.00
2022-11-05T03:52:38.082Z,100.00
2022-11-05T03:57:38.299Z,100.00
2022-11-05T04:02:38.354Z,99.75
2022-11-05T04:07:38.077Z,100.00
2022-11-05T04:12:38.362Z,100.00
2022-11-05T04:17:38.089Z,100.00
2022-11-05T04:22:38.090Z,100.00
2022-11-05T04:27:38.088Z,100.00
2022-11-05T04:32:38.068Z,100.00
2022-11-05T04:42:38.342Z,100.00
2022-11-05T04:47:38.139Z,100.00
2022-11-05T04:52:38.290Z,100.00
2022-11-05T04:57:38.153Z,99.86
2022-11-05T05:02:38.071Z,99.67
2022-11-05T05:07:38.398Z,99.50
2022-11-05T05:17:38.262Z,99.31
2022-11-05T05:22:38.189Z,99.22
2022-11-05T05:42:42.948Z,98.96
2022-11-05T05:47:38.277Z,98.18
2022-11-05T05:52:38.414Z,98.18
2022-11-05T05:57:38.148Z,97.86
2022-11-05T06:02:38.514Z,97.55
2022-11-05T06:07:38.218Z,98.18
2022-11-05T06:12:38.144Z,97.94
2022-11-05T06:17:38.210Z,98.29
2022-11-05T06:22:38.557Z,98.18
2022-11-05T06:27:38.138Z,97.30
2022-11-05T06:32:38.318Z,96.94
2022-11-05T06:37:38.154Z,96.56
2022-11-05T06:42:38.146Z,96.48
2022-11-05T06:47:38.419Z,96.48
2022-11-05T06:52:41.047Z,96.98
2022-11-05T06:57:38.165Z,97.37
2022-11-05T07:07:38.636Z,97.67
2022-11-05T07:12:38.164Z,98.23
2022-11-05T07:17:38.163Z,97.79
2022-11-05T07:22:38.170Z,97.79
2022-11-05T07:32:38.560Z,96.52
2022-11-05T07:37:38.292Z,96.17
2022-11-05T07:42:38.182Z,96.70
2022-11-05T07:47:38.226Z,96.70
2022-11-05T07:52:38.384Z,96.15
2022-11-05T07:57:38.170Z,94.83
2022-11-05T08:02:38.575Z,93.97
2022-11-05T08:07:38.193Z,93.36
2022-11-05T08:12:38.305Z,94.05
2022-11-05T08:17:38.439Z,92.79
2022-11-05T08:22:38.261Z,92.66
2022-11-05T08:27:38.757Z,92.51
2022-11-05T08:37:38.420Z,91.51
2022-11-05T08:42:38.220Z,90.86
2022-11-05T08:47:38.197Z,89.88
2022-11-05T08:52:38.373Z,88.65
2022-11-05T08:57:38.306Z,89.05
2022-11-05T09:02:38.281Z,89.05
2022-11-05T09:07:38.312Z,87.92
2022-11-05T09:12:38.436Z,87.31
2022-11-05T09:17:38.235Z,87.50
2022-11-05T09:22:43.093Z,87.03
2022-11-05T09:27:38.209Z,87.03
2022-11-05T09:32:38.375Z,86.98
2022-11-05T09:37:38.537Z,86.22
2022-11-05T09:42:38.489Z,86.22
2022-11-05T09:47:38.638Z,86.17
2022-11-05T09:52:38.222Z,86.21
2022-11-05T09:57:38.470Z,85.37
2022-11-05T10:02:38.386Z,85.37
2022-11-05T10:12:38.529Z,83.94
2022-11-05T10:17:39.369Z,82.74
2022-11-05T10:22:38.280Z,82.74
2022-11-05T10:27:38.236Z,80.62
2022-11-05T10:32:38.542Z,81.19
2022-11-05T10:37:40.675Z,80.89
2022-11-05T10:42:38.480Z,81.43
2022-11-05T10:47:38.415Z,81.34
2022-11-05T10:52:38.259Z,81.34
2022-11-05T10:57:38.541Z,81.21
2022-11-05T11:02:38.424Z,80.46
2022-11-05T11:07:38.570Z,80.14
2022-11-05T11:12:40.840Z,80.14
2022-11-05T11:17:38.566Z,80.57
2022-11-05T11:22:38.352Z,80.57
2022-11-05T11:27:38.262Z,80.28
2022-11-05T11:32:38.356Z,80.28
2022-11-05T11:37:38.464Z,79.86
2022-11-05T11:42:38.362Z,79.30
2022-11-05T11:47:38.463Z,78.96
2022-11-05T11:52:38.399Z,77.86
2022-11-05T11:57:38.692Z,78.01
2022-11-05T12:02:40.389Z,77.83
2022-11-05T12:07:38.378Z,77.69
2022-11-05T12:12:38.546Z,77.65
2022-11-05T12:17:38.311Z,77.59
2022-11-05T12:22:38.503Z,77.59
2022-11-05T12:27:38.449Z,77.18
2022-11-05T12:32:38.613Z,77.66
2022-11-05T12:37:38.875Z,77.62
2022-11-05T12:42:38.449Z,77.98
2022-11-05T12:47:38.328Z,78.24
2022-11-05T12:52:38.323Z,77.98
2022-11-05T12:57:38.822Z,78.15
2022-11-05T13:02:38.439Z,78.26
2022-11-05T13:07:38.279Z,78.18
2022-11-05T13:12:38.682Z,78.25
2022-11-05T13:17:38.463Z,78.25
2022-11-05T13:22:38.642Z,78.50
2022-11-05T13:27:38.530Z,78.08
2022-11-05T13:32:38.531Z,78.08
2022-11-05T13:37:38.421Z,78.31
2022-11-05T13:42:39.013Z,78.31
2022-11-05T13:47:38.412Z,78.72
2022-11-05T13:52:39.020Z,78.55
2022-11-05T13:57:38.583Z,79.14
2022-11-05T14:02:38.501Z,79.42
2022-11-05T14:12:38.755Z,79.92
2022-11-05T14:17:38.592Z,80.03
2022-11-05T14:22:38.607Z,80.03
2022-11-05T14:27:38.358Z,79.50
2022-11-05T14:32:38.388Z,79.50
2022-11-05T14:37:38.324Z,79.07
2022-11-05T14:42:38.374Z,79.31
2022-11-05T14:47:38.600Z,79.31
2022-11-05T14:52:38.585Z,78.57
2022-11-05T14:57:38.369Z,78.57
2022-11-05T15:02:38.986Z,78.53
2022-11-05T15:07:38.480Z,78.28
2022-11-05T15:12:38.900Z,77.49
2022-11-05T15:17:38.426Z,77.49
2022-11-05T15:22:38.513Z,77.07
2022-11-05T15:27:38.604Z,77.25
2022-11-05T15:32:38.785Z,76.87
2022-11-05T15:37:38.698Z,77.18
2022-11-05T15:47:38.940Z,77.66
2022-11-05T15:52:38.618Z,78.19
2022-11-05T15:57:40.416Z,79.01
2022-11-05T16:02:38.588Z,79.48
2022-11-05T16:07:40.616Z,79.89
2022-11-05T16:12:38.604Z,80.46
2022-11-05T16:17:38.847Z,81.15
2022-11-05T16:27:38.628Z,81.24
2022-11-05T16:32:38.720Z,82.34
2022-11-05T16:37:38.731Z,82.90
2022-11-05T16:42:39.791Z,84.19
2022-11-05T16:47:39.023Z,85.46
2022-11-05T16:52:38.661Z,85.46
2022-11-05T16:57:38.580Z,87.51
2022-11-05T17:02:38.720Z,89.04
2022-11-05T17:07:41.541Z,89.52
2022-11-05T17:12:39.702Z,90.19
2022-11-05T17:17:38.431Z,90.19
2022-11-05T17:22:38.903Z,91.58
2022-11-05T17:27:38.680Z,92.25
2022-11-05T17:32:38.837Z,92.89
2022-11-05T17:42:38.733Z,94.86
2022-11-05T17:47:40.140Z,95.62
2022-11-05T17:52:38.627Z,95.62
2022-11-05T17:57:38.850Z,97.28
2022-11-05T18:02:40.078Z,97.71
2022-11-05T18:07:39.052Z,98.57
2022-11-05T18:12:38.626Z,99.95
2022-11-05T18:17:39.040Z,100.00
2022-11-05T18:22:38.899Z,100.00
2022-11-05T18:27:38.773Z,100.00
2022-11-05T18:32:39.135Z,100.00
2022-11-05T18:37:39.190Z,100.00
2022-11-05T18:42:39.003Z,100.00
2022-11-05T18:47:38.689Z,100.00
2022-11-05T18:52:38.783Z,100.00
2022-11-05T18:57:40.064Z,100.00
2022-11-05T19:02:38.877Z,100.00
2022-11-05T19:07:38.718Z,100.00
2022-11-05T19:12:38.653Z,100.00
2022-11-05T19:17:39.183Z,100.00
2022-11-05T19:22:39.057Z,100.00
2022-11-05T19:27:38.659Z,100.00
2022-11-05T19:37:38.806Z,100.00
2022-11-05T19:42:38.948Z,100.00
2022-11-05T19:47:38.706Z,100.00
2022-11-05T19:52:38.747Z,100.00
2022-11-05T19:57:38.810Z,100.00
2022-11-05T20:02:38.994Z,100.00
2022-11-05T20:12:38.973Z,100.00
2022-11-05T20:17:39.042Z,100.00
2022-11-05T20:22:38.787Z,100.00
2022-11-05T20:27:39.002Z,100.00
2022-11-05T20:32:38.795Z,100.00
2022-11-05T20:37:38.742Z,100.00
2022-11-05T20:42:39.259Z,100.00
2022-11-05T20:52:40.591Z,100.00
2022-11-05T20:57:38.984Z,100.00
2022-11-05T21:02:38.861Z,100.00
2022-11-05T21:07:38.907Z,100.00
2022-11-05T21:12:38.687Z,100.00
2022-11-05T21:17:38.610Z,100.00
2022-11-05T21:22:38.651Z,100.00
2022-11-05T21:27:43.262Z,100.00
2022-11-05T21:32:38.704Z,100.00
2022-11-05T21:37:39.017Z,100.00
2022-11-05T21:42:39.061Z,100.00
2022-11-05T21:47:38.648Z,100.00
2022-11-05T21:52:38.899Z,100.00
2022-11-05T21:57:38.938Z,100.00
2022-11-05T22:07:38.913Z,100.00
2022-11-05T22:12:38.535Z,100.00
2022-11-05T22:17:41.448Z,100.00
2022-11-05T22:22:38.604Z,100.00
2022-11-05T22:27:38.554Z,100.00
2022-11-05T22:32:38.544Z,100.00
2022-11-05T22:37:38.660Z,100.00
2022-11-05T22:42:38.949Z,100.00
2022-11-05T22:47:38.706Z,100.00
2022-11-05T22:52:38.829Z,100.00
2022-11-05T22:57:38.682Z,100.00
2022-11-05T23:02:39.018Z,100.00
2022-11-05T23:07:38.620Z,100.00
2022-11-05T23:12:38.784Z,100.00
2022-11-05T23:17:38.562Z,100.00
2022-11-05T23:27:38.852Z,100.00
2022-11-05T23:32:38.653Z,100.00
2022-11-05T23:37:38.845Z,100.00
2022-11-05T23:47:38.735Z,100.00
2022-11-05T23:52:38.813Z,100.00
2022-11-05T23:57:38.603Z,100.00
